sensor_id;sensor_type;location;lat;lon;timestamp;P1;durP1;ratioP1;P2;durP2;ratioP2
78197;SDS011;67472;51.554;7.812;2023-04-29T00:00:20;27.52;;;18.55;;
78197;SDS011;67472;51.554;7.812;2023-04-29T00:03:06;31.58;;;19.85;;
78197;SDS011;67472;51.554;7.812;2023-04-29T00:05:53;28.48;;;19.73;;
78197;SDS011;67472;51.554;7.812;2023-04-29T00:08:39;31.55;;;20.63;;
78197;SDS011;67472;51.554;7.812;2023-04-29T00:11:25;32.45;;;21.17;;
78197;SDS011;67472;51.554;7.812;2023-04-29T00:14:12;30.08;;;18.83;;
78197;SDS011;67472;51.554;7.812;2023-04-29T00:16:59;31.20;;;19.55;;
78197;SDS011;67472;51.554;7.812;2023-04-29T00:19:46;28.48;;;19.30;;
78197;SDS011;67472;51.554;7.812;2023-04-29T00:22:34;29.48;;;18.27;;
78197;SDS011;67472;51.554;7.812;2023-04-29T00:25:20;30.95;;;20.05;;
78197;SDS011;67472;51.554;7.812;2023-04-29T00:28:06;28.08;;;19.10;;
78197;SDS011;67472;51.554;7.812;2023-04-29T00:30:52;32.72;;;19.65;;
78197;SDS011;67472;51.554;7.812;2023-04-29T00:33:41;28.27;;;18.48;;
78197;SDS011;67472;51.554;7.812;2023-04-29T00:36:27;31.65;;;20.02;;
78197;SDS011;67472;51.554;7.812;2023-04-29T00:39:15;35.58;;;20.00;;
78197;SDS011;67472;51.554;7.812;2023-04-29T00:42:01;34.67;;;20.40;;
78197;SDS011;67472;51.554;7.812;2023-04-29T00:44:48;29.67;;;19.42;;
78197;SDS011;67472;51.554;7.812;2023-04-29T00:47:34;30.52;;;19.60;;
78197;SDS011;67472;51.554;7.812;2023-04-29T00:50:22;33.10;;;20.52;;
78197;SDS011;67472;51.554;7.812;2023-04-29T00:53:08;30.35;;;19.30;;
78197;SDS011;67472;51.554;7.812;2023-04-29T00:55:56;32.58;;;20.75;;
78197;SDS011;67472;51.554;7.812;2023-04-29T00:58:44;34.08;;;20.50;;
78197;SDS011;67472;51.554;7.812;2023-04-29T01:01:33;33.35;;;20.58;;
78197;SDS011;67472;51.554;7.812;2023-04-29T01:04:20;36.45;;;21.70;;
78197;SDS011;67472;51.554;7.812;2023-04-29T01:07:12;43.97;;;25.00;;
78197;SDS011;67472;51.554;7.812;2023-04-29T01:10:02;49.63;;;27.95;;
78197;SDS011;67472;51.554;7.812;2023-04-29T01:12:55;54.58;;;30.15;;
78197;SDS011;67472;51.554;7.812;2023-04-29T01:15:52;58.03;;;30.13;;
78197;SDS011;67472;51.554;7.812;2023-04-29T01:18:49;55.35;;;28.38;;
78197;SDS011;67472;51.554;7.812;2023-04-29T01:21:45;64.43;;;30.85;;
78197;SDS011;67472;51.554;7.812;2023-04-29T01:24:35;60.17;;;31.02;;
78197;SDS011;67472;51.554;7.812;2023-04-29T01:27:24;62.17;;;34.25;;
78197;SDS011;67472;51.554;7.812;2023-04-29T01:30:27;61.63;;;32.88;;
78197;SDS011;67472;51.554;7.812;2023-04-29T01:33:21;56.45;;;29.67;;
78197;SDS011;67472;51.554;7.812;2023-04-29T01:36:17;54.63;;;28.45;;
78197;SDS011;67472;51.554;7.812;2023-04-29T01:39:11;49.60;;;26.88;;
78197;SDS011;67472;51.554;7.812;2023-04-29T01:42:09;51.75;;;27.67;;
78197;SDS011;67472;51.554;7.812;2023-04-29T01:45:04;55.85;;;28.52;;
78197;SDS011;67472;51.554;7.812;2023-04-29T01:47:53;60.13;;;27.17;;
78197;SDS011;67472;51.554;7.812;2023-04-29T01:50:41;63.85;;;28.13;;
78197;SDS011;67472;51.554;7.812;2023-04-29T01:53:33;63.25;;;30.13;;
78197;SDS011;67472;51.554;7.812;2023-04-29T01:56:19;73.28;;;31.83;;
78197;SDS011;67472;51.554;7.812;2023-04-29T01:59:30;78.65;;;33.70;;
78197;SDS011;67472;51.554;7.812;2023-04-29T02:02:25;74.32;;;34.47;;
78197;SDS011;67472;51.554;7.812;2023-04-29T02:05:19;84.25;;;36.15;;
78197;SDS011;67472;51.554;7.812;2023-04-29T02:08:12;82.60;;;35.58;;
78197;SDS011;67472;51.554;7.812;2023-04-29T02:11:02;85.05;;;34.53;;
78197;SDS011;67472;51.554;7.812;2023-04-29T02:13:57;87.10;;;35.42;;
78197;SDS011;67472;51.554;7.812;2023-04-29T02:16:45;75.47;;;34.70;;
78197;SDS011;67472;51.554;7.812;2023-04-29T02:19:32;83.28;;;34.90;;
78197;SDS011;67472;51.554;7.812;2023-04-29T02:22:18;73.72;;;33.33;;
78197;SDS011;67472;51.554;7.812;2023-04-29T02:25:05;83.05;;;33.70;;
78197;SDS011;67472;51.554;7.812;2023-04-29T02:27:52;81.55;;;34.97;;
78197;SDS011;67472;51.554;7.812;2023-04-29T02:30:38;84.18;;;35.08;;
78197;SDS011;67472;51.554;7.812;2023-04-29T02:33:26;82.00;;;35.40;;
78197;SDS011;67472;51.554;7.812;2023-04-29T02:36:13;86.53;;;35.40;;
78197;SDS011;67472;51.554;7.812;2023-04-29T02:38:59;110.97;;;43.45;;
78197;SDS011;67472;51.554;7.812;2023-04-29T02:41:46;112.72;;;41.38;;
78197;SDS011;67472;51.554;7.812;2023-04-29T02:44:32;110.78;;;43.35;;
78197;SDS011;67472;51.554;7.812;2023-04-29T02:47:18;102.00;;;40.03;;
78197;SDS011;67472;51.554;7.812;2023-04-29T02:50:06;103.45;;;40.28;;
78197;SDS011;67472;51.554;7.812;2023-04-29T02:52:53;106.50;;;41.97;;
78197;SDS011;67472;51.554;7.812;2023-04-29T02:55:40;99.35;;;39.45;;
78197;SDS011;67472;51.554;7.812;2023-04-29T02:58:27;92.43;;;39.20;;
78197;SDS011;67472;51.554;7.812;2023-04-29T03:01:14;101.90;;;39.95;;
78197;SDS011;67472;51.554;7.812;2023-04-29T03:04:00;90.53;;;39.60;;
78197;SDS011;67472;51.554;7.812;2023-04-29T03:06:48;98.93;;;39.92;;
78197;SDS011;67472;51.554;7.812;2023-04-29T03:09:34;87.80;;;37.05;;
78197;SDS011;67472;51.554;7.812;2023-04-29T03:12:21;84.78;;;38.45;;
78197;SDS011;67472;51.554;7.812;2023-04-29T03:15:08;82.85;;;35.13;;
78197;SDS011;67472;51.554;7.812;2023-04-29T03:17:55;81.63;;;36.33;;
78197;SDS011;67472;51.554;7.812;2023-04-29T03:20:43;79.50;;;35.40;;
78197;SDS011;67472;51.554;7.812;2023-04-29T03:23:31;83.55;;;36.10;;
78197;SDS011;67472;51.554;7.812;2023-04-29T03:26:19;83.55;;;36.15;;
78197;SDS011;67472;51.554;7.812;2023-04-29T03:29:06;84.47;;;35.38;;
78197;SDS011;67472;51.554;7.812;2023-04-29T03:31:52;89.20;;;35.95;;
78197;SDS011;67472;51.554;7.812;2023-04-29T03:34:40;84.80;;;32.85;;
78197;SDS011;67472;51.554;7.812;2023-04-29T03:37:47;69.65;;;32.15;;
78197;SDS011;67472;51.554;7.812;2023-04-29T03:40:42;67.47;;;30.05;;
78197;SDS011;67472;51.554;7.812;2023-04-29T03:43:29;56.58;;;26.45;;
78197;SDS011;67472;51.554;7.812;2023-04-29T03:46:15;61.40;;;28.40;;
78197;SDS011;67472;51.554;7.812;2023-04-29T03:49:01;65.57;;;29.15;;
78197;SDS011;67472;51.554;7.812;2023-04-29T03:51:48;56.97;;;27.75;;
78197;SDS011;67472;51.554;7.812;2023-04-29T03:54:35;65.47;;;29.05;;
78197;SDS011;67472;51.554;7.812;2023-04-29T03:57:23;68.75;;;30.50;;
78197;SDS011;67472;51.554;7.812;2023-04-29T04:00:11;70.57;;;30.92;;
78197;SDS011;67472;51.554;7.812;2023-04-29T04:02:59;65.90;;;30.88;;
78197;SDS011;67472;51.554;7.812;2023-04-29T04:05:45;69.32;;;31.38;;
78197;SDS011;67472;51.554;7.812;2023-04-29T04:08:33;64.60;;;30.35;;
78197;SDS011;67472;51.554;7.812;2023-04-29T04:11:28;58.42;;;28.70;;
78197;SDS011;67472;51.554;7.812;2023-04-29T04:14:19;60.50;;;29.00;;
78197;SDS011;67472;51.554;7.812;2023-04-29T04:17:05;62.95;;;30.83;;
78197;SDS011;67472;51.554;7.812;2023-04-29T04:19:53;65.35;;;30.15;;
78197;SDS011;67472;51.554;7.812;2023-04-29T04:22:40;63.60;;;29.33;;
78197;SDS011;67472;51.554;7.812;2023-04-29T04:25:46;55.30;;;29.02;;
78197;SDS011;67472;51.554;7.812;2023-04-29T04:28:56;58.30;;;29.17;;
78197;SDS011;67472;51.554;7.812;2023-04-29T04:32:07;53.75;;;28.10;;
78197;SDS011;67472;51.554;7.812;2023-04-29T04:34:55;64.53;;;30.50;;
78197;SDS011;67472;51.554;7.812;2023-04-29T04:37:42;66.20;;;32.30;;
78197;SDS011;67472;51.554;7.812;2023-04-29T04:40:28;71.07;;;31.77;;
78197;SDS011;67472;51.554;7.812;2023-04-29T04:43:31;67.80;;;32.83;;
78197;SDS011;67472;51.554;7.812;2023-04-29T04:46:18;70.47;;;33.10;;
78197;SDS011;67472;51.554;7.812;2023-04-29T04:49:17;68.85;;;31.92;;
78197;SDS011;67472;51.554;7.812;2023-04-29T04:52:08;67.32;;;32.17;;
78197;SDS011;67472;51.554;7.812;2023-04-29T04:54:55;65.00;;;31.75;;
78197;SDS011;67472;51.554;7.812;2023-04-29T04:57:46;69.85;;;33.00;;
78197;SDS011;67472;51.554;7.812;2023-04-29T05:00:33;67.90;;;32.15;;
78197;SDS011;67472;51.554;7.812;2023-04-29T05:03:19;67.72;;;32.22;;
78197;SDS011;67472;51.554;7.812;2023-04-29T05:06:07;70.15;;;30.73;;
78197;SDS011;67472;51.554;7.812;2023-04-29T05:08:54;62.63;;;31.10;;
78197;SDS011;67472;51.554;7.812;2023-04-29T05:11:42;63.08;;;31.05;;
78197;SDS011;67472;51.554;7.812;2023-04-29T05:14:31;64.53;;;30.25;;
78197;SDS011;67472;51.554;7.812;2023-04-29T05:17:20;61.50;;;30.60;;
78197;SDS011;67472;51.554;7.812;2023-04-29T05:20:38;63.47;;;29.60;;
78197;SDS011;67472;51.554;7.812;2023-04-29T05:23:26;62.75;;;29.45;;
78197;SDS011;67472;51.554;7.812;2023-04-29T05:26:13;59.78;;;29.75;;
78197;SDS011;67472;51.554;7.812;2023-04-29T05:28:59;56.20;;;29.40;;
78197;SDS011;67472;51.554;7.812;2023-04-29T05:31:49;59.95;;;31.50;;
78197;SDS011;67472;51.554;7.812;2023-04-29T05:34:36;66.22;;;31.17;;
78197;SDS011;67472;51.554;7.812;2023-04-29T05:37:22;59.08;;;30.80;;
78197;SDS011;67472;51.554;7.812;2023-04-29T05:40:36;60.00;;;31.10;;
78197;SDS011;67472;51.554;7.812;2023-04-29T05:43:54;51.90;;;28.77;;
78197;SDS011;67472;51.554;7.812;2023-04-29T05:46:41;57.90;;;29.23;;
78197;SDS011;67472;51.554;7.812;2023-04-29T05:49:27;56.33;;;28.90;;
78197;SDS011;67472;51.554;7.812;2023-04-29T05:52:13;56.60;;;28.98;;
78197;SDS011;67472;51.554;7.812;2023-04-29T05:55:04;56.40;;;29.15;;
78197;SDS011;67472;51.554;7.812;2023-04-29T05:57:52;52.83;;;29.50;;
78197;SDS011;67472;51.554;7.812;2023-04-29T06:00:39;55.92;;;29.10;;
78197;SDS011;67472;51.554;7.812;2023-04-29T06:03:33;51.40;;;28.73;;
78197;SDS011;67472;51.554;7.812;2023-04-29T06:06:38;55.83;;;30.70;;
78197;SDS011;67472;51.554;7.812;2023-04-29T06:09:24;50.90;;;28.15;;
78197;SDS011;67472;51.554;7.812;2023-04-29T06:12:11;50.83;;;29.15;;
78197;SDS011;67472;51.554;7.812;2023-04-29T06:15:01;47.17;;;28.27;;
78197;SDS011;67472;51.554;7.812;2023-04-29T06:17:48;54.13;;;29.70;;
78197;SDS011;67472;51.554;7.812;2023-04-29T06:20:34;55.88;;;30.70;;
78197;SDS011;67472;51.554;7.812;2023-04-29T06:23:20;53.10;;;30.08;;
78197;SDS011;67472;51.554;7.812;2023-04-29T06:26:07;50.13;;;29.23;;
78197;SDS011;67472;51.554;7.812;2023-04-29T06:28:54;47.72;;;28.85;;
78197;SDS011;67472;51.554;7.812;2023-04-29T06:31:42;49.25;;;28.98;;
78197;SDS011;67472;51.554;7.812;2023-04-29T06:34:28;57.35;;;30.65;;
78197;SDS011;67472;51.554;7.812;2023-04-29T06:37:35;50.22;;;30.15;;
78197;SDS011;67472;51.554;7.812;2023-04-29T06:40:31;46.85;;;29.45;;
78197;SDS011;67472;51.554;7.812;2023-04-29T06:43:49;53.88;;;30.75;;
78197;SDS011;67472;51.554;7.812;2023-04-29T06:46:55;56.80;;;30.85;;
78197;SDS011;67472;51.554;7.812;2023-04-29T06:49:57;59.85;;;32.88;;
78197;SDS011;67472;51.554;7.812;2023-04-29T06:52:44;61.30;;;31.83;;
78197;SDS011;67472;51.554;7.812;2023-04-29T06:55:30;55.10;;;30.45;;
78197;SDS011;67472;51.554;7.812;2023-04-29T06:58:17;59.67;;;33.47;;
78197;SDS011;67472;51.554;7.812;2023-04-29T07:01:04;54.05;;;31.30;;
78197;SDS011;67472;51.554;7.812;2023-04-29T07:03:53;60.63;;;32.55;;
78197;SDS011;67472;51.554;7.812;2023-04-29T07:06:40;59.45;;;32.58;;
78197;SDS011;67472;51.554;7.812;2023-04-29T07:09:30;61.22;;;34.65;;
78197;SDS011;67472;51.554;7.812;2023-04-29T07:12:17;56.55;;;32.00;;
78197;SDS011;67472;51.554;7.812;2023-04-29T07:15:03;62.40;;;34.40;;
78197;SDS011;67472;51.554;7.812;2023-04-29T07:17:50;61.03;;;32.55;;
78197;SDS011;67472;51.554;7.812;2023-04-29T07:20:38;60.45;;;31.80;;
78197;SDS011;67472;51.554;7.812;2023-04-29T07:23:25;54.42;;;30.77;;
78197;SDS011;67472;51.554;7.812;2023-04-29T07:26:12;52.40;;;30.02;;
78197;SDS011;67472;51.554;7.812;2023-04-29T07:29:01;58.13;;;30.85;;
78197;SDS011;67472;51.554;7.812;2023-04-29T07:31:48;49.47;;;29.48;;
78197;SDS011;67472;51.554;7.812;2023-04-29T07:34:34;55.30;;;29.75;;
78197;SDS011;67472;51.554;7.812;2023-04-29T07:37:23;50.45;;;28.30;;
78197;SDS011;67472;51.554;7.812;2023-04-29T07:40:10;50.22;;;28.02;;
78197;SDS011;67472;51.554;7.812;2023-04-29T07:42:57;49.15;;;27.83;;
78197;SDS011;67472;51.554;7.812;2023-04-29T07:45:48;60.45;;;30.40;;
78197;SDS011;67472;51.554;7.812;2023-04-29T07:48:35;47.72;;;27.77;;
78197;SDS011;67472;51.554;7.812;2023-04-29T07:51:23;53.60;;;28.75;;
78197;SDS011;67472;51.554;7.812;2023-04-29T07:54:14;49.65;;;28.38;;
78197;SDS011;67472;51.554;7.812;2023-04-29T07:57:00;54.30;;;28.08;;
78197;SDS011;67472;51.554;7.812;2023-04-29T07:59:49;49.15;;;29.50;;
78197;SDS011;67472;51.554;7.812;2023-04-29T08:02:36;48.90;;;28.77;;
78197;SDS011;67472;51.554;7.812;2023-04-29T08:05:23;49.13;;;28.15;;
78197;SDS011;67472;51.554;7.812;2023-04-29T08:08:10;51.10;;;29.42;;
78197;SDS011;67472;51.554;7.812;2023-04-29T08:10:57;59.83;;;32.92;;
78197;SDS011;67472;51.554;7.812;2023-04-29T08:13:45;63.65;;;32.22;;
78197;SDS011;67472;51.554;7.812;2023-04-29T08:16:32;58.20;;;32.38;;
78197;SDS011;67472;51.554;7.812;2023-04-29T08:19:18;64.55;;;33.97;;
78197;SDS011;67472;51.554;7.812;2023-04-29T08:22:05;62.63;;;33.53;;
78197;SDS011;67472;51.554;7.812;2023-04-29T08:24:52;71.60;;;36.08;;
78197;SDS011;67472;51.554;7.812;2023-04-29T08:27:40;69.57;;;36.95;;
78197;SDS011;67472;51.554;7.812;2023-04-29T08:30:29;68.05;;;36.25;;
78197;SDS011;67472;51.554;7.812;2023-04-29T08:33:15;72.72;;;36.08;;
78197;SDS011;67472;51.554;7.812;2023-04-29T08:36:02;74.18;;;39.50;;
78197;SDS011;67472;51.554;7.812;2023-04-29T08:38:49;70.45;;;36.38;;
78197;SDS011;67472;51.554;7.812;2023-04-29T08:41:37;76.43;;;38.03;;
78197;SDS011;67472;51.554;7.812;2023-04-29T08:44:25;72.80;;;36.72;;
78197;SDS011;67472;51.554;7.812;2023-04-29T08:47:12;73.20;;;38.40;;
78197;SDS011;67472;51.554;7.812;2023-04-29T08:50:00;72.88;;;38.67;;
78197;SDS011;67472;51.554;7.812;2023-04-29T08:52:49;77.43;;;37.38;;
78197;SDS011;67472;51.554;7.812;2023-04-29T08:55:36;76.97;;;40.45;;
78197;SDS011;67472;51.554;7.812;2023-04-29T08:58:26;77.85;;;41.30;;
78197;SDS011;67472;51.554;7.812;2023-04-29T09:01:15;83.35;;;43.17;;
78197;SDS011;67472;51.554;7.812;2023-04-29T09:04:11;79.72;;;38.80;;
78197;SDS011;67472;51.554;7.812;2023-04-29T09:07:01;84.00;;;40.40;;
78197;SDS011;67472;51.554;7.812;2023-04-29T09:09:49;73.85;;;39.90;;
78197;SDS011;67472;51.554;7.812;2023-04-29T09:12:38;71.80;;;40.00;;
78197;SDS011;67472;51.554;7.812;2023-04-29T09:15:25;71.50;;;38.38;;
78197;SDS011;67472;51.554;7.812;2023-04-29T09:18:13;84.65;;;40.97;;
78197;SDS011;67472;51.554;7.812;2023-04-29T09:21:29;87.75;;;42.45;;
78197;SDS011;67472;51.554;7.812;2023-04-29T09:24:16;76.05;;;40.72;;
78197;SDS011;67472;51.554;7.812;2023-04-29T09:27:10;70.72;;;37.75;;
78197;SDS011;67472;51.554;7.812;2023-04-29T09:30:11;72.72;;;38.90;;
78197;SDS011;67472;51.554;7.812;2023-04-29T09:33:04;60.00;;;35.42;;
78197;SDS011;67472;51.554;7.812;2023-04-29T09:35:53;58.67;;;33.78;;
78197;SDS011;67472;51.554;7.812;2023-04-29T09:38:46;53.63;;;33.67;;
78197;SDS011;67472;51.554;7.812;2023-04-29T09:41:39;56.45;;;34.28;;
78197;SDS011;67472;51.554;7.812;2023-04-29T09:44:27;51.00;;;33.97;;
78197;SDS011;67472;51.554;7.812;2023-04-29T09:47:15;51.78;;;31.42;;
78197;SDS011;67472;51.554;7.812;2023-04-29T09:50:09;47.22;;;30.77;;
78197;SDS011;67472;51.554;7.812;2023-04-29T09:52:58;47.92;;;30.90;;
78197;SDS011;67472;51.554;7.812;2023-04-29T09:55:57;49.35;;;31.38;;
78197;SDS011;67472;51.554;7.812;2023-04-29T09:58:43;54.45;;;32.65;;
78197;SDS011;67472;51.554;7.812;2023-04-29T10:01:29;48.80;;;30.80;;
78197;SDS011;67472;51.554;7.812;2023-04-29T10:04:17;52.63;;;32.08;;
78197;SDS011;67472;51.554;7.812;2023-04-29T10:07:04;51.33;;;31.30;;
78197;SDS011;67472;51.554;7.812;2023-04-29T10:09:53;46.80;;;31.05;;
78197;SDS011;67472;51.554;7.812;2023-04-29T10:12:40;49.20;;;32.50;;
78197;SDS011;67472;51.554;7.812;2023-04-29T10:15:28;46.72;;;30.05;;
78197;SDS011;67472;51.554;7.812;2023-04-29T10:18:21;44.22;;;29.20;;
78197;SDS011;67472;51.554;7.812;2023-04-29T10:21:16;41.33;;;29.23;;
78197;SDS011;67472;51.554;7.812;2023-04-29T10:24:06;41.22;;;29.30;;
78197;SDS011;67472;51.554;7.812;2023-04-29T10:26:55;47.75;;;28.95;;
78197;SDS011;67472;51.554;7.812;2023-04-29T10:29:43;42.58;;;30.45;;
78197;SDS011;67472;51.554;7.812;2023-04-29T10:32:30;38.03;;;27.27;;
78197;SDS011;67472;51.554;7.812;2023-04-29T10:35:20;41.17;;;27.67;;
78197;SDS011;67472;51.554;7.812;2023-04-29T10:38:10;38.13;;;26.58;;
78197;SDS011;67472;51.554;7.812;2023-04-29T10:41:03;36.63;;;26.02;;
78197;SDS011;67472;51.554;7.812;2023-04-29T10:43:55;34.42;;;24.70;;
78197;SDS011;67472;51.554;7.812;2023-04-29T10:46:44;30.60;;;23.55;;
78197;SDS011;67472;51.554;7.812;2023-04-29T10:49:32;35.97;;;24.95;;
78197;SDS011;67472;51.554;7.812;2023-04-29T10:52:19;34.67;;;23.38;;
78197;SDS011;67472;51.554;7.812;2023-04-29T10:55:06;31.95;;;23.02;;
78197;SDS011;67472;51.554;7.812;2023-04-29T10:57:53;29.65;;;21.77;;
78197;SDS011;67472;51.554;7.812;2023-04-29T11:00:42;31.73;;;22.88;;
78197;SDS011;67472;51.554;7.812;2023-04-29T11:03:47;28.05;;;22.42;;
78197;SDS011;67472;51.554;7.812;2023-04-29T11:06:44;31.13;;;22.42;;
78197;SDS011;67472;51.554;7.812;2023-04-29T11:09:31;28.75;;;21.30;;
78197;SDS011;67472;51.554;7.812;2023-04-29T11:12:22;26.77;;;22.35;;
78197;SDS011;67472;51.554;7.812;2023-04-29T11:15:08;29.63;;;20.13;;
78197;SDS011;67472;51.554;7.812;2023-04-29T11:17:58;32.47;;;20.83;;
78197;SDS011;67472;51.554;7.812;2023-04-29T11:23:58;28.38;;;21.02;;
78197;SDS011;67472;51.554;7.812;2023-04-29T11:26:46;30.08;;;19.80;;
78197;SDS011;67472;51.554;7.812;2023-04-29T11:29:32;29.55;;;20.70;;
78197;SDS011;67472;51.554;7.812;2023-04-29T11:32:19;24.48;;;18.15;;
78197;SDS011;67472;51.554;7.812;2023-04-29T11:35:08;28.60;;;20.10;;
78197;SDS011;67472;51.554;7.812;2023-04-29T11:37:57;26.38;;;19.40;;
78197;SDS011;67472;51.554;7.812;2023-04-29T11:40:47;26.83;;;18.92;;
78197;SDS011;67472;51.554;7.812;2023-04-29T11:43:33;26.80;;;18.85;;
78197;SDS011;67472;51.554;7.812;2023-04-29T11:46:20;25.02;;;19.52;;
78197;SDS011;67472;51.554;7.812;2023-04-29T11:49:06;26.48;;;20.92;;
78197;SDS011;67472;51.554;7.812;2023-04-29T11:51:55;27.70;;;20.17;;
78197;SDS011;67472;51.554;7.812;2023-04-29T11:54:41;22.58;;;18.45;;
78197;SDS011;67472;51.554;7.812;2023-04-29T11:57:27;22.67;;;18.33;;
78197;SDS011;67472;51.554;7.812;2023-04-29T12:00:15;23.52;;;17.48;;
78197;SDS011;67472;51.554;7.812;2023-04-29T12:03:05;23.30;;;18.77;;
78197;SDS011;67472;51.554;7.812;2023-04-29T12:05:53;25.90;;;18.60;;
78197;SDS011;67472;51.554;7.812;2023-04-29T12:08:42;22.88;;;18.42;;
78197;SDS011;67472;51.554;7.812;2023-04-29T12:11:31;28.42;;;19.33;;
78197;SDS011;67472;51.554;7.812;2023-04-29T12:14:17;26.77;;;17.88;;
78197;SDS011;67472;51.554;7.812;2023-04-29T12:17:04;26.73;;;18.85;;
78197;SDS011;67472;51.554;7.812;2023-04-29T12:19:50;26.90;;;18.75;;
78197;SDS011;67472;51.554;7.812;2023-04-29T12:22:37;22.70;;;17.98;;
78197;SDS011;67472;51.554;7.812;2023-04-29T12:25:25;24.90;;;17.35;;
78197;SDS011;67472;51.554;7.812;2023-04-29T12:28:13;23.75;;;16.95;;
78197;SDS011;67472;51.554;7.812;2023-04-29T12:31:00;24.85;;;18.15;;
78197;SDS011;67472;51.554;7.812;2023-04-29T12:33:46;21.05;;;16.35;;
78197;SDS011;67472;51.554;7.812;2023-04-29T12:36:33;24.55;;;16.70;;
78197;SDS011;67472;51.554;7.812;2023-04-29T12:39:21;21.98;;;16.23;;
78197;SDS011;67472;51.554;7.812;2023-04-29T12:42:13;21.88;;;16.75;;
78197;SDS011;67472;51.554;7.812;2023-04-29T12:44:59;19.65;;;16.33;;
78197;SDS011;67472;51.554;7.812;2023-04-29T12:47:45;23.00;;;16.97;;
78197;SDS011;67472;51.554;7.812;2023-04-29T12:50:32;20.05;;;15.93;;
78197;SDS011;67472;51.554;7.812;2023-04-29T12:53:19;21.65;;;17.00;;
78197;SDS011;67472;51.554;7.812;2023-04-29T12:56:06;24.75;;;16.33;;
78197;SDS011;67472;51.554;7.812;2023-04-29T12:58:54;22.92;;;17.27;;
78197;SDS011;67472;51.554;7.812;2023-04-29T13:01:40;27.23;;;17.58;;
78197;SDS011;67472;51.554;7.812;2023-04-29T13:04:26;28.88;;;17.92;;
78197;SDS011;67472;51.554;7.812;2023-04-29T13:07:13;24.42;;;17.33;;
78197;SDS011;67472;51.554;7.812;2023-04-29T13:09:59;23.55;;;17.98;;
78197;SDS011;67472;51.554;7.812;2023-04-29T13:12:45;19.67;;;16.55;;
78197;SDS011;67472;51.554;7.812;2023-04-29T13:15:33;22.17;;;16.10;;
78197;SDS011;67472;51.554;7.812;2023-04-29T13:18:19;20.10;;;15.55;;
78197;SDS011;67472;51.554;7.812;2023-04-29T13:21:05;22.67;;;17.13;;
78197;SDS011;67472;51.554;7.812;2023-04-29T13:23:52;23.85;;;15.95;;
78197;SDS011;67472;51.554;7.812;2023-04-29T13:26:38;21.48;;;16.25;;
78197;SDS011;67472;51.554;7.812;2023-04-29T13:29:25;21.70;;;16.48;;
78197;SDS011;67472;51.554;7.812;2023-04-29T13:32:13;22.65;;;16.85;;
78197;SDS011;67472;51.554;7.812;2023-04-29T13:35:01;23.88;;;17.55;;
78197;SDS011;67472;51.554;7.812;2023-04-29T13:37:47;22.00;;;16.88;;
78197;SDS011;67472;51.554;7.812;2023-04-29T13:40:34;21.15;;;15.90;;
78197;SDS011;67472;51.554;7.812;2023-04-29T13:43:20;22.48;;;16.30;;
78197;SDS011;67472;51.554;7.812;2023-04-29T13:46:06;23.77;;;17.05;;
78197;SDS011;67472;51.554;7.812;2023-04-29T13:48:54;23.08;;;15.90;;
78197;SDS011;67472;51.554;7.812;2023-04-29T13:51:40;24.25;;;16.85;;
78197;SDS011;67472;51.554;7.812;2023-04-29T13:54:26;25.38;;;17.23;;
78197;SDS011;67472;51.554;7.812;2023-04-29T13:57:12;25.48;;;17.25;;
78197;SDS011;67472;51.554;7.812;2023-04-29T13:59:59;19.73;;;16.67;;
78197;SDS011;67472;51.554;7.812;2023-04-29T14:02:56;24.98;;;17.25;;
78197;SDS011;67472;51.554;7.812;2023-04-29T14:05:44;24.02;;;17.67;;
78197;SDS011;67472;51.554;7.812;2023-04-29T14:08:30;20.40;;;16.45;;
78197;SDS011;67472;51.554;7.812;2023-04-29T14:11:19;20.38;;;17.00;;
78197;SDS011;67472;51.554;7.812;2023-04-29T14:14:05;22.65;;;16.42;;
78197;SDS011;67472;51.554;7.812;2023-04-29T14:16:52;21.35;;;15.40;;
78197;SDS011;67472;51.554;7.812;2023-04-29T14:19:38;22.70;;;16.17;;
78197;SDS011;67472;51.554;7.812;2023-04-29T14:22:26;23.92;;;16.23;;
78197;SDS011;67472;51.554;7.812;2023-04-29T14:25:12;20.00;;;15.35;;
78197;SDS011;67472;51.554;7.812;2023-04-29T14:27:59;19.13;;;14.77;;
78197;SDS011;67472;51.554;7.812;2023-04-29T14:30:45;18.33;;;14.40;;
78197;SDS011;67472;51.554;7.812;2023-04-29T14:33:32;17.35;;;14.30;;
78197;SDS011;67472;51.554;7.812;2023-04-29T14:36:18;21.13;;;14.95;;
78197;SDS011;67472;51.554;7.812;2023-04-29T14:39:06;20.90;;;16.58;;
78197;SDS011;67472;51.554;7.812;2023-04-29T14:41:53;22.10;;;16.13;;
78197;SDS011;67472;51.554;7.812;2023-04-29T14:44:40;21.42;;;16.52;;
78197;SDS011;67472;51.554;7.812;2023-04-29T14:47:26;20.83;;;17.05;;
78197;SDS011;67472;51.554;7.812;2023-04-29T14:50:12;20.40;;;16.52;;
78197;SDS011;67472;51.554;7.812;2023-04-29T14:52:59;29.48;;;16.95;;
78197;SDS011;67472;51.554;7.812;2023-04-29T14:55:48;19.80;;;15.77;;
78197;SDS011;67472;51.554;7.812;2023-04-29T14:58:35;20.38;;;16.40;;
78197;SDS011;67472;51.554;7.812;2023-04-29T15:01:21;19.33;;;15.65;;
78197;SDS011;67472;51.554;7.812;2023-04-29T15:04:08;22.58;;;16.80;;
78197;SDS011;67472;51.554;7.812;2023-04-29T15:06:56;19.45;;;16.42;;
78197;SDS011;67472;51.554;7.812;2023-04-29T15:09:42;23.85;;;16.58;;
78197;SDS011;67472;51.554;7.812;2023-04-29T15:12:30;19.40;;;15.32;;
78197;SDS011;67472;51.554;7.812;2023-04-29T15:15:17;20.45;;;14.98;;
78197;SDS011;67472;51.554;7.812;2023-04-29T15:18:03;17.52;;;13.18;;
78197;SDS011;67472;51.554;7.812;2023-04-29T15:20:52;14.82;;;11.93;;
78197;SDS011;67472;51.554;7.812;2023-04-29T15:23:39;13.90;;;10.35;;
78197;SDS011;67472;51.554;7.812;2023-04-29T15:26:25;13.10;;;10.18;;
78197;SDS011;67472;51.554;7.812;2023-04-29T15:29:13;15.85;;;10.50;;
78197;SDS011;67472;51.554;7.812;2023-04-29T15:31:59;16.30;;;11.48;;
78197;SDS011;67472;51.554;7.812;2023-04-29T15:34:46;13.50;;;10.50;;
78197;SDS011;67472;51.554;7.812;2023-04-29T15:37:32;14.85;;;11.75;;
78197;SDS011;67472;51.554;7.812;2023-04-29T15:40:18;12.85;;;9.25;;
78197;SDS011;67472;51.554;7.812;2023-04-29T15:43:05;10.70;;;9.13;;
78197;SDS011;67472;51.554;7.812;2023-04-29T15:45:53;14.48;;;9.65;;
78197;SDS011;67472;51.554;7.812;2023-04-29T15:48:39;14.45;;;10.85;;
78197;SDS011;67472;51.554;7.812;2023-04-29T15:51:26;11.77;;;9.60;;
78197;SDS011;67472;51.554;7.812;2023-04-29T15:54:13;12.50;;;10.55;;
78197;SDS011;67472;51.554;7.812;2023-04-29T15:56:59;15.25;;;10.40;;
78197;SDS011;67472;51.554;7.812;2023-04-29T15:59:47;17.35;;;10.70;;
78197;SDS011;67472;51.554;7.812;2023-04-29T16:02:34;14.25;;;10.20;;
78197;SDS011;67472;51.554;7.812;2023-04-29T16:05:20;15.00;;;10.98;;
78197;SDS011;67472;51.554;7.812;2023-04-29T16:08:07;16.27;;;10.95;;
78197;SDS011;67472;51.554;7.812;2023-04-29T16:10:53;14.45;;;10.15;;
78197;SDS011;67472;51.554;7.812;2023-04-29T16:13:40;18.15;;;11.18;;
78197;SDS011;67472;51.554;7.812;2023-04-29T16:16:26;13.93;;;11.18;;
78197;SDS011;67472;51.554;7.812;2023-04-29T16:19:14;10.15;;;9.10;;
78197;SDS011;67472;51.554;7.812;2023-04-29T16:22:00;15.93;;;11.15;;
78197;SDS011;67472;51.554;7.812;2023-04-29T16:24:47;13.23;;;10.77;;
78197;SDS011;67472;51.554;7.812;2023-04-29T16:27:33;15.32;;;11.27;;
78197;SDS011;67472;51.554;7.812;2023-04-29T16:30:20;18.67;;;10.98;;